Temp: 0.3°C   Baro: 1049.5mb
  Wind: 0.0mph   Dir: NW (316°)
  Rain: 0.0mm (0.0mm/hr)
  Solar: 0W/m2  Hum: 93%
 
Bath Spa Weather Historical Data
Daily Summary for October 25, 2019 Units:  Metric    English   Both
Next Day »
Daily Weekly Monthly Yearly Custom
  High: Low: Average:
Temperature: 16.7 °C 10.1 °C 13.4 °C
Dew Point: 14.2 °C 8.2 °C 11.5 °C
Humidity: 92% 84% 88%
Wind Speed: 48.3km/h 0.0km/h 10.4km/h
Wind Gust: 51.5km/h - -
Wind direction- - SSW
Pressure: 1012.8 hPa 1005.0 hPa -
Precipitation: 1.8 mm    
Historical Graphs
 
 
Tabular Data for October 25, 2019
Time Temperature Dew Point Pressure Wind direction Wind Speed Wind Gust Humidity Rainfall Rate (Hourly) solar
00:00 10.3 °C 8.4 °C 1010.4 hPa Calm     88% 0.0 mm 0.00 W/m2
00:05 10.3 °C 8.4 °C 1010.4 hPa Calm     88% 0.0 mm 0.00 W/m2
00:10 10.3 °C 8.4 °C 1010.4 hPa Calm     88% 0.0 mm 0.00 W/m2
00:15 10.3 °C 8.6 °C 1010.4 hPa Calm     89% 0.0 mm 0.00 W/m2
00:20 10.3 °C 8.6 °C 1010.4 hPa Calm     89% 0.0 mm 0.00 W/m2
00:25 10.3 °C 8.6 °C 1010.4 hPa Calm     89% 0.0 mm 0.00 W/m2
00:30 10.3 °C 8.6 °C 1010.4 hPa Calm     89% 0.0 mm 0.00 W/m2
00:35 10.3 °C 8.6 °C 1010.4 hPa Calm   1.6 km/h 89% 0.0 mm 0.00 W/m2
00:40 10.3 °C 8.6 °C 1010.7 hPa Calm   1.6 km/h 89% 0.0 mm 0.00 W/m2
00:45 10.3 °C 8.6 °C 1010.7 hPa SW 1.4 km/h 1.6 km/h 89% 0.0 mm 0.00 W/m2
00:50 10.4 °C 8.7 °C 1010.7 hPa SW 3.2 km/h 4.8 km/h 89% 0.0 mm 0.00 W/m2
00:55 10.4 °C 8.7 °C 1010.7 hPa SW 1.4 km/h 4.8 km/h 89% 0.0 mm 0.00 W/m2
01:00 10.4 °C 8.7 °C 1010.7 hPa Calm   3.2 km/h 89% 0.0 mm 0.00 W/m2
01:05 10.5 °C 8.8 °C 1010.7 hPa Calm   3.2 km/h 89% 0.0 mm 0.00 W/m2
01:10 10.4 °C 8.7 °C 1010.7 hPa Calm   1.6 km/h 89% 0.0 mm 0.00 W/m2
01:15 10.4 °C 8.7 °C 1010.7 hPa SW 1.4 km/h 6.4 km/h 89% 0.0 mm 0.00 W/m2
01:20 10.5 °C 8.8 °C 1010.7 hPa Calm   3.2 km/h 89% 0.0 mm 0.00 W/m2
01:25 10.5 °C 8.8 °C 1010.7 hPa Calm   4.8 km/h 89% 0.0 mm 0.00 W/m2
01:30 10.4 °C 8.7 °C 1011.1 hPa SW 1.4 km/h 3.2 km/h 89% 0.0 mm 0.00 W/m2
01:35 10.4 °C 8.7 °C 1011.1 hPa Calm   4.8 km/h 89% 0.0 mm 0.00 W/m2
01:40 10.5 °C 8.9 °C 1011.1 hPa SW 4.7 km/h 8.0 km/h 90% 0.0 mm 0.00 W/m2
01:45 10.6 °C 8.9 °C 1011.1 hPa SW 3.2 km/h 11.3 km/h 89% 0.0 mm 0.00 W/m2
01:50 10.6 °C 8.9 °C 1011.1 hPa WSW 6.4 km/h 11.3 km/h 89% 0.0 mm 0.00 W/m2
01:55 10.7 °C 9.0 °C 1011.1 hPa WSW 3.2 km/h 11.3 km/h 89% 0.0 mm 0.00 W/m2
02:00 10.6 °C 8.9 °C 1011.1 hPa WSW 4.7 km/h 8.0 km/h 89% 0.0 mm 0.00 W/m2
02:05 10.7 °C 9.0 °C 1011.1 hPa WSW 4.7 km/h 14.5 km/h 89% 0.0 mm 0.00 W/m2
02:10 10.7 °C 9.0 °C 1011.4 hPa WSW 6.4 km/h 12.9 km/h 89% 0.0 mm 0.00 W/m2
02:15 10.7 °C 9.0 °C 1011.4 hPa SW 7.9 km/h 9.7 km/h 89% 0.0 mm 0.00 W/m2
02:20 10.7 °C 9.0 °C 1011.4 hPa WSW 9.7 km/h 19.3 km/h 89% 0.0 mm 0.00 W/m2
02:25 10.8 °C 9.1 °C 1011.4 hPa WSW 9.7 km/h 12.9 km/h 89% 0.0 mm 0.00 W/m2
02:30 10.8 °C 9.1 °C 1011.4 hPa SW 13.0 km/h 14.5 km/h 89% 0.0 mm 0.00 W/m2
02:35 10.8 °C 9.1 °C 1011.4 hPa SW 3.2 km/h 8.0 km/h 89% 0.0 mm 0.00 W/m2
02:40 10.7 °C 9.0 °C 1011.4 hPa SW 11.1 km/h 11.3 km/h 89% 0.0 mm 0.00 W/m2
02:45 10.7 °C 9.0 °C 1011.4 hPa SW 3.2 km/h 6.4 km/h 89% 0.0 mm 0.00 W/m2
02:50 10.7 °C 9.0 °C 1011.4 hPa SW 1.4 km/h 6.4 km/h 89% 0.0 mm 0.00 W/m2
02:55 10.6 °C 8.9 °C 1011.4 hPa SW 1.4 km/h 1.6 km/h 89% 0.0 mm 0.00 W/m2
03:00 10.6 °C 8.9 °C 1011.4 hPa Calm   6.4 km/h 89% 0.0 mm 0.00 W/m2
03:05 10.6 °C 8.9 °C 1011.4 hPa Calm   4.8 km/h 89% 0.0 mm 0.00 W/m2
03:10 10.5 °C 8.8 °C 1011.4 hPa SW 1.4 km/h 6.4 km/h 89% 0.0 mm 0.00 W/m2
03:15 10.4 °C 8.7 °C 1011.4 hPa SW 6.4 km/h 8.0 km/h 89% 0.0 mm 0.00 W/m2
03:20 10.4 °C 8.5 °C 1011.7 hPa Calm   4.8 km/h 88% 0.0 mm 0.00 W/m2
03:25 10.3 °C 8.4 °C 1011.7 hPa Calm     88% 0.0 mm 0.00 W/m2
03:30 10.2 °C 8.3 °C 1011.7 hPa SW 6.4 km/h 6.4 km/h 88% 0.0 mm 0.00 W/m2
03:35 10.2 °C 8.3 °C 1011.7 hPa Calm     88% 0.0 mm 0.00 W/m2
03:40 10.1 °C 8.2 °C 1011.7 hPa SW 1.4 km/h 6.4 km/h 88% 0.0 mm 0.00 W/m2
03:45 10.2 °C 8.3 °C 1011.7 hPa SW 1.4 km/h 8.0 km/h 88% 0.0 mm 0.00 W/m2
03:50 10.2 °C 8.3 °C 1012.1 hPa SW 1.4 km/h 9.7 km/h 88% 0.0 mm 0.00 W/m2
03:55 10.3 °C 8.4 °C 1012.1 hPa Calm   8.0 km/h 88% 0.0 mm 0.00 W/m2
04:00 10.2 °C 8.3 °C 1011.7 hPa Calm   3.2 km/h 88% 0.0 mm 0.00 W/m2
04:05 10.2 °C 8.3 °C 1011.7 hPa SW 3.2 km/h 6.4 km/h 88% 0.0 mm 0.00 W/m2
04:10 10.2 °C 8.3 °C 1012.1 hPa SW 4.7 km/h 9.7 km/h 88% 0.0 mm 0.00 W/m2
04:15 10.3 °C 8.4 °C 1012.1 hPa SW 1.4 km/h 4.8 km/h 88% 0.0 mm 0.00 W/m2
04:20 10.3 °C 8.4 °C 1012.1 hPa Calm   3.2 km/h 88% 0.0 mm 0.00 W/m2
04:25 10.2 °C 8.3 °C 1012.1 hPa Calm   3.2 km/h 88% 0.0 mm 0.00 W/m2
04:30 10.2 °C 8.3 °C 1012.4 hPa Calm   3.2 km/h 88% 0.0 mm 0.00 W/m2
04:35 10.1 °C 8.2 °C 1012.1 hPa Calm   6.4 km/h 88% 0.0 mm 0.00 W/m2
04:40 10.1 °C 8.2 °C 1012.1 hPa Calm   1.6 km/h 88% 0.0 mm 0.00 W/m2
04:45 10.1 °C 8.2 °C 1012.4 hPa SW 3.2 km/h 4.8 km/h 88% 0.0 mm 0.00 W/m2
04:50 10.1 °C 8.2 °C 1012.1 hPa SW 1.4 km/h 3.2 km/h 88% 0.0 mm 0.00 W/m2
04:55 10.1 °C 8.2 °C 1012.4 hPa Calm   1.6 km/h 88% 0.0 mm 0.00 W/m2
05:00 10.1 °C 8.2 °C 1012.4 hPa Calm   4.8 km/h 88% 0.0 mm 0.00 W/m2
05:05 10.2 °C 8.3 °C 1012.4 hPa WSW 3.2 km/h 6.4 km/h 88% 0.0 mm 0.00 W/m2
05:10 10.2 °C 8.3 °C 1012.4 hPa Calm   4.8 km/h 88% 0.0 mm 0.00 W/m2
05:15 10.2 °C 8.3 °C 1012.4 hPa WSW 3.2 km/h 4.8 km/h 88% 0.0 mm 0.00 W/m2
05:20 10.3 °C 8.4 °C 1012.4 hPa SW 3.2 km/h 16.1 km/h 88% 0.0 mm 0.00 W/m2
05:25 10.3 °C 8.4 °C 1012.4 hPa SW 4.7 km/h 4.8 km/h 88% 0.0 mm 0.00 W/m2
05:30 10.4 °C 8.5 °C 1012.4 hPa SW 3.2 km/h 9.7 km/h 88% 0.0 mm 0.00 W/m2
05:35 10.4 °C 8.5 °C 1012.4 hPa SW 7.9 km/h 8.0 km/h 88% 0.0 mm 0.00 W/m2
05:40 10.4 °C 8.5 °C 1012.4 hPa SW 4.7 km/h 4.8 km/h 88% 0.0 mm 0.00 W/m2
05:45 10.5 °C 8.6 °C 1012.4 hPa SW 4.7 km/h 6.4 km/h 88% 0.0 mm 0.00 W/m2
05:50 10.5 °C 8.6 °C 1012.4 hPa Calm   4.8 km/h 88% 0.0 mm 0.00 W/m2
05:55 10.4 °C 8.5 °C 1012.4 hPa Calm     88% 0.0 mm 0.00 W/m2
06:00 10.4 °C 8.5 °C 1012.4 hPa Calm   4.8 km/h 88% 0.0 mm 0.00 W/m2
06:05 10.4 °C 8.5 °C 1012.4 hPa SW 3.2 km/h 3.2 km/h 88% 0.0 mm 0.00 W/m2
06:10 10.4 °C 8.5 °C 1012.4 hPa Calm   3.2 km/h 88% 0.0 mm 0.00 W/m2
06:15 10.3 °C 8.6 °C 1012.4 hPa SW 1.4 km/h 1.6 km/h 89% 0.0 mm 0.00 W/m2
06:20 10.3 °C 8.6 °C 1012.4 hPa Calm   3.2 km/h 89% 0.0 mm 0.00 W/m2
06:25 10.5 °C 8.8 °C 1012.4 hPa Calm   4.8 km/h 89% 0.0 mm 0.00 W/m2
06:30 10.6 °C 8.9 °C 1012.4 hPa Calm   9.7 km/h 89% 0.0 mm 0.00 W/m2
06:35 10.6 °C 8.9 °C 1012.4 hPa SW 1.4 km/h 8.0 km/h 89% 0.0 mm 0.00 W/m2
06:40 10.7 °C 9.0 °C 1012.4 hPa SW 4.7 km/h 9.7 km/h 89% 0.0 mm 0.00 W/m2
06:45 10.8 °C 9.1 °C 1012.1 hPa SW 4.7 km/h 11.3 km/h 89% 0.0 mm 0.00 W/m2
06:50 10.9 °C 9.2 °C 1012.4 hPa SW 7.9 km/h 8.0 km/h 89% 0.0 mm 0.00 W/m2
06:55 10.9 °C 9.0 °C 1012.1 hPa WSW 3.2 km/h 9.7 km/h 88% 0.0 mm 0.00 W/m2
07:00 11.1 °C 9.2 °C 1012.1 hPa WSW 3.2 km/h 6.4 km/h 88% 0.0 mm 0.00 W/m2
07:05 11.1 °C 9.2 °C 1011.7 hPa Calm   9.7 km/h 88% 0.0 mm 0.00 W/m2
07:10 11.1 °C 9.2 °C 1011.7 hPa Calm   3.2 km/h 88% 0.0 mm 0.00 W/m2
07:15 11.1 °C 9.2 °C 1011.7 hPa WSW 4.7 km/h 4.8 km/h 88% 0.0 mm 0.00 W/m2
07:20 11.1 °C 9.2 °C 1012.1 hPa WSW 3.2 km/h 9.7 km/h 88% 0.0 mm 0.00 W/m2
07:25 11.2 °C 9.3 °C 1012.1 hPa SW 6.4 km/h 16.1 km/h 88% 0.0 mm 0.00 W/m2
07:30 11.4 °C 9.5 °C 1012.1 hPa SW 3.2 km/h 9.7 km/h 88% 0.0 mm 0.00 W/m2
07:35 11.5 °C 9.6 °C 1012.1 hPa SW 7.9 km/h 12.9 km/h 88% 0.0 mm 0.00 W/m2
07:40 11.5 °C 9.6 °C 1012.1 hPa SW 3.2 km/h 6.4 km/h 88% 0.0 mm 0.00 W/m2
07:45 11.6 °C 9.7 °C 1012.1 hPa SW 4.7 km/h 9.7 km/h 88% 0.0 mm 0.00 W/m2
07:50 11.6 °C 9.7 °C 1012.1 hPa SW 4.7 km/h 8.0 km/h 88% 0.0 mm 0.00 W/m2
07:55 11.8 °C 9.9 °C 1012.1 hPa Calm   8.0 km/h 88% 0.0 mm 0.00 W/m2
08:00 12.0 °C 10.1 °C 1012.1 hPa SW 4.7 km/h 6.4 km/h 88% 0.0 mm 5.00 W/m2
08:05 11.9 °C 10.0 °C 1012.1 hPa Calm   3.2 km/h 88% 0.0 mm 5.00 W/m2
08:10 11.9 °C 10.0 °C 1012.4 hPa SW 4.7 km/h 4.8 km/h 88% 0.0 mm 7.00 W/m2
08:15 11.8 °C 9.9 °C 1012.4 hPa SW 3.2 km/h 4.8 km/h 88% 0.0 mm 7.00 W/m2
08:20 11.8 °C 9.9 °C 1012.8 hPa SW 1.4 km/h 6.4 km/h 88% 0.0 mm 11.00 W/m2
08:25 11.8 °C 9.9 °C 1012.8 hPa SW 3.2 km/h 4.8 km/h 88% 0.0 mm 12.00 W/m2
08:30 11.8 °C 9.9 °C 1012.8 hPa Calm     88% 0.0 mm 12.00 W/m2
08:35 11.9 °C 10.0 °C 1012.4 hPa Calm     88% 0.0 mm 12.00 W/m2
08:40 11.9 °C 10.0 °C 1012.8 hPa Calm     88% 0.0 mm 19.00 W/m2
08:45 11.9 °C 10.0 °C 1012.4 hPa Calm   1.6 km/h 88% 0.0 mm 21.00 W/m2
08:50 11.9 °C 10.0 °C 1012.8 hPa Calm   6.4 km/h 88% 0.3 mm 16.00 W/m2
08:55 11.9 °C 10.1 °C 1012.4 hPa Calm   6.4 km/h 89% 0.3 mm 19.00 W/m2
09:00 11.9 °C 10.1 °C 1012.4 hPa SW 3.2 km/h 8.0 km/h 89% 0.3 mm 19.00 W/m2
09:05 11.8 °C 10.0 °C 1012.4 hPa Calm     89% 0.3 mm 23.00 W/m2
09:10 11.9 °C 10.1 °C 1012.1 hPa Calm     89% 0.3 mm 26.00 W/m2
09:15 11.8 °C 10.0 °C 1012.1 hPa Calm     89% 0.3 mm 49.00 W/m2
09:20 11.9 °C 10.1 °C 1012.1 hPa Calm     89% 0.3 mm 42.00 W/m2
09:25 11.9 °C 10.1 °C 1012.1 hPa SSW 4.7 km/h 6.4 km/h 89% 0.3 mm 37.00 W/m2
09:30 11.8 °C 10.2 °C 1012.1 hPa SSW 3.2 km/h 4.8 km/h 90% 0.3 mm 40.00 W/m2
09:35 11.8 °C 10.2 °C 1012.1 hPa SSW 9.7 km/h 9.7 km/h 90% 0.3 mm 35.00 W/m2
09:40 11.7 °C 10.1 °C 1012.1 hPa SSW 1.4 km/h 6.4 km/h 90% 0.3 mm 33.00 W/m2
09:45 11.7 °C 10.1 °C 1011.7 hPa South 3.2 km/h 9.7 km/h 90% 0.3 mm 44.00 W/m2
09:50 11.7 °C 10.1 °C 1011.7 hPa SSE 3.2 km/h 12.9 km/h 90% 0.0 mm 42.00 W/m2
09:55 11.8 °C 10.4 °C 1011.7 hPa SSE 6.4 km/h 12.9 km/h 91% 0.0 mm 44.00 W/m2
10:00 11.8 °C 10.4 °C 1011.4 hPa SSE 4.7 km/h 12.9 km/h 91% 0.0 mm 40.00 W/m2
10:05 11.9 °C 10.3 °C 1011.4 hPa SSE 6.4 km/h 11.3 km/h 90% 0.0 mm 46.00 W/m2
10:10 11.9 °C 10.3 °C 1011.4 hPa SSE 7.9 km/h 8.0 km/h 90% 0.0 mm 63.00 W/m2
10:15 12.1 °C 10.5 °C 1011.1 hPa SSE 6.4 km/h 11.3 km/h 90% 0.0 mm 53.00 W/m2
10:20 12.1 °C 10.5 °C 1011.1 hPa SSE 4.7 km/h 8.0 km/h 90% 0.0 mm 74.00 W/m2
10:25 12.2 °C 10.6 °C 1011.1 hPa SSE 6.4 km/h 12.9 km/h 90% 0.0 mm 69.00 W/m2
10:30 12.3 °C 10.7 °C 1010.7 hPa SSE 7.9 km/h 12.9 km/h 90% 0.0 mm 86.00 W/m2
10:35 12.4 °C 10.8 °C 1010.7 hPa SSE 4.7 km/h 11.3 km/h 90% 0.0 mm 91.00 W/m2
10:40 12.6 °C 11.0 °C 1010.7 hPa South 9.7 km/h 12.9 km/h 90% 0.0 mm 76.00 W/m2
10:45 12.6 °C 10.8 °C 1010.7 hPa South 4.7 km/h 12.9 km/h 89% 0.0 mm 65.00 W/m2
10:50 12.7 °C 10.9 °C 1010.7 hPa South 4.7 km/h 12.9 km/h 89% 0.0 mm 70.00 W/m2
10:55 12.7 °C 10.9 °C 1010.4 hPa SSE 11.1 km/h 14.5 km/h 89% 0.0 mm 60.00 W/m2
11:00 12.8 °C 11.0 °C 1010.4 hPa SSE 9.7 km/h 12.9 km/h 89% 0.0 mm 53.00 W/m2
11:05 12.9 °C 11.0 °C 1010.4 hPa South 7.9 km/h 16.1 km/h 88% 0.3 mm 53.00 W/m2
11:10 13.0 °C 11.1 °C 1010.4 hPa SSE 6.4 km/h 17.7 km/h 88% 0.3 mm 63.00 W/m2
11:15 13.1 °C 11.2 °C 1010.0 hPa South 11.1 km/h 17.7 km/h 88% 0.3 mm 72.00 W/m2
11:20 13.2 °C 11.1 °C 1010.0 hPa SSE 9.7 km/h 12.9 km/h 87% 0.3 mm 60.00 W/m2
11:25 13.3 °C 11.2 °C 1010.0 hPa SSE 14.3 km/h 17.7 km/h 87% 0.3 mm 49.00 W/m2
11:30 13.3 °C 11.2 °C 1010.0 hPa SSE 9.7 km/h 14.5 km/h 87% 0.3 mm 56.00 W/m2
11:35 13.4 °C 11.3 °C 1010.0 hPa SSE 20.9 km/h 20.9 km/h 87% 0.3 mm 65.00 W/m2
11:40 13.5 °C 11.4 °C 1009.7 hPa SSE 6.4 km/h 14.5 km/h 87% 0.3 mm 62.00 W/m2
11:45 13.6 °C 11.5 °C 1009.7 hPa South 13.0 km/h 20.9 km/h 87% 0.3 mm 100.00 W/m2
11:50 13.7 °C 11.6 °C 1009.7 hPa SSE 7.9 km/h 17.7 km/h 87% 0.3 mm 63.00 W/m2
11:55 13.8 °C 11.5 °C 1009.7 hPa South 25.9 km/h 25.7 km/h 86% 0.3 mm 69.00 W/m2
12:00 13.8 °C 11.5 °C 1009.7 hPa SE 9.7 km/h 19.3 km/h 86% 0.3 mm 70.00 W/m2
12:05 13.7 °C 11.6 °C 1010.0 hPa SSW 6.4 km/h 27.4 km/h 87% 0.0 mm 39.00 W/m2
12:10 13.6 °C 11.6 °C 1009.7 hPa WSW 11.1 km/h 22.5 km/h 88% 0.0 mm 67.00 W/m2
12:15 13.4 °C 11.5 °C 1009.7 hPa South 11.1 km/h 22.5 km/h 88% 0.0 mm 44.00 W/m2
12:20 13.3 °C 11.5 °C 1009.7 hPa South 11.1 km/h 24.1 km/h 89% 0.0 mm 60.00 W/m2
12:25 13.3 °C 11.5 °C 1009.4 hPa SW 6.4 km/h 12.9 km/h 89% 0.0 mm 70.00 W/m2
12:30 13.3 °C 11.7 °C 1009.4 hPa SSW 13.0 km/h 22.5 km/h 90% 0.0 mm 72.00 W/m2
12:35 13.3 °C 11.7 °C 1009.0 hPa South 13.0 km/h 25.7 km/h 90% 0.0 mm 53.00 W/m2
12:40 13.4 °C 12.0 °C 1008.7 hPa SSW 9.7 km/h 24.1 km/h 91% 0.0 mm 56.00 W/m2
12:45 13.6 °C 12.2 °C 1008.7 hPa South 14.3 km/h 22.5 km/h 91% 0.0 mm 56.00 W/m2
12:50 13.7 °C 12.3 °C 1008.7 hPa SSW 9.7 km/h 20.9 km/h 91% 0.0 mm 88.00 W/m2
12:55 13.9 °C 12.5 °C 1008.4 hPa SSW 16.3 km/h 19.3 km/h 91% 0.0 mm 62.00 W/m2
13:00 14.2 °C 12.8 °C 1008.4 hPa SSW 4.7 km/h 22.5 km/h 91% 0.0 mm 51.00 W/m2
13:05 14.4 °C 13.1 °C 1008.4 hPa SSW 6.4 km/h 17.7 km/h 92% 0.0 mm 46.00 W/m2
13:10 14.7 °C 13.2 °C 1008.4 hPa SSW 17.7 km/h 32.2 km/h 91% 0.0 mm 76.00 W/m2
13:15 14.9 °C 13.4 °C 1008.0 hPa SSW 9.7 km/h 22.5 km/h 91% 0.0 mm 102.00 W/m2
13:20 15.1 °C 13.6 °C 1008.0 hPa WSW 11.1 km/h 22.5 km/h 91% 0.0 mm 72.00 W/m2
13:25 15.2 °C 13.7 °C 1007.7 hPa SW 22.7 km/h 35.4 km/h 91% 0.0 mm 83.00 W/m2
13:30 15.4 °C 13.8 °C 1007.7 hPa South 13.0 km/h 27.4 km/h 90% 0.0 mm 105.00 W/m2
13:35 15.5 °C 13.7 °C 1007.7 hPa SW 27.4 km/h 33.8 km/h 89% 0.0 mm 111.00 W/m2
13:40 15.6 °C 13.6 °C 1007.3 hPa WSW 13.0 km/h 30.6 km/h 88% 0.0 mm 114.00 W/m2
13:45 15.7 °C 13.7 °C 1007.3 hPa SW 11.1 km/h 24.1 km/h 88% 0.0 mm 104.00 W/m2
13:50 15.8 °C 13.6 °C 1007.3 hPa SSW 9.7 km/h 35.4 km/h 87% 0.0 mm 118.00 W/m2
13:55 15.8 °C 13.6 °C 1007.3 hPa SW 25.9 km/h 35.4 km/h 87% 0.0 mm 114.00 W/m2
14:00 15.9 °C 13.7 °C 1007.3 hPa SSW 24.1 km/h 37.0 km/h 87% 0.0 mm 142.00 W/m2
14:05 16.0 °C 13.7 °C 1007.0 hPa SSW 14.3 km/h 35.4 km/h 86% 0.0 mm 155.00 W/m2
14:10 16.1 °C 13.8 °C 1006.7 hPa SSW 11.1 km/h 17.7 km/h 86% 0.0 mm 162.00 W/m2
14:15 16.1 °C 13.8 °C 1007.0 hPa SSW 6.4 km/h 24.1 km/h 86% 0.0 mm 155.00 W/m2
14:20 16.2 °C 13.9 °C 1007.0 hPa South 11.1 km/h 30.6 km/h 86% 0.0 mm 151.00 W/m2
14:25 16.3 °C 14.0 °C 1007.0 hPa SSW 19.5 km/h 33.8 km/h 86% 0.0 mm 244.00 W/m2
14:30 16.5 °C 14.0 °C 1007.0 hPa SSW 14.3 km/h 29.0 km/h 85% 0.0 mm 186.00 W/m2
14:35 16.6 °C 14.1 °C 1007.0 hPa South 11.1 km/h 20.9 km/h 85% 0.0 mm 202.00 W/m2
14:40 16.6 °C 13.9 °C 1007.0 hPa SW 16.3 km/h 27.4 km/h 84% 0.0 mm 141.00 W/m2
14:45 16.6 °C 13.9 °C 1007.0 hPa South 17.7 km/h 24.1 km/h 84% 0.0 mm 158.00 W/m2
14:50 16.6 °C 13.9 °C 1007.0 hPa South 9.7 km/h 27.4 km/h 84% 0.0 mm 183.00 W/m2
14:55 16.7 °C 14.0 °C 1007.3 hPa SSW 17.7 km/h 30.6 km/h 84% 0.0 mm 100.00 W/m2
15:00 16.7 °C 14.0 °C 1007.0 hPa SW 16.3 km/h 27.4 km/h 84% 0.0 mm 118.00 W/m2
15:05 16.6 °C 13.9 °C 1007.3 hPa SSW 16.3 km/h 25.7 km/h 84% 0.0 mm 62.00 W/m2
15:10 16.6 °C 13.9 °C 1007.3 hPa SW 27.4 km/h 29.0 km/h 84% 0.0 mm 32.00 W/m2
15:15 16.6 °C 13.9 °C 1007.3 hPa SW 13.0 km/h 30.6 km/h 84% 0.0 mm 40.00 W/m2
15:20 16.5 °C 13.8 °C 1007.3 hPa SSW 3.2 km/h 17.7 km/h 84% 0.0 mm 35.00 W/m2
15:25 16.5 °C 13.8 °C 1007.3 hPa SSW 17.7 km/h 19.3 km/h 84% 0.0 mm 49.00 W/m2
15:30 16.6 °C 14.1 °C 1007.0 hPa SSW 11.1 km/h 30.6 km/h 85% 0.0 mm 25.00 W/m2
15:35 16.5 °C 14.0 °C 1007.0 hPa SSW 11.1 km/h 24.1 km/h 85% 0.0 mm 47.00 W/m2
15:40 16.5 °C 14.0 °C 1006.7 hPa SW 13.0 km/h 29.0 km/h 85% 0.0 mm 60.00 W/m2
15:45 16.4 °C 13.9 °C 1007.0 hPa SSW 6.4 km/h 17.7 km/h 85% 0.0 mm 33.00 W/m2
15:50 16.4 °C 13.9 °C 1006.7 hPa SSW 28.8 km/h 35.4 km/h 85% 0.0 mm 42.00 W/m2
15:55 16.4 °C 13.9 °C 1006.7 hPa SW 16.3 km/h 35.4 km/h 85% 0.0 mm 39.00 W/m2
16:00 16.4 °C 13.9 °C 1006.3 hPa SW 24.1 km/h 25.7 km/h 85% 0.0 mm 44.00 W/m2
16:05 16.4 °C 13.9 °C 1006.7 hPa SW 19.5 km/h 25.7 km/h 85% 0.0 mm 28.00 W/m2
16:10 16.4 °C 13.9 °C 1006.7 hPa South 9.7 km/h 24.1 km/h 85% 0.0 mm 18.00 W/m2
16:15 16.3 °C 13.8 °C 1006.3 hPa SW 13.0 km/h 30.6 km/h 85% 0.0 mm 28.00 W/m2
16:20 16.3 °C 14.0 °C 1006.3 hPa SW 16.3 km/h 32.2 km/h 86% 0.0 mm 19.00 W/m2
16:25 16.2 °C 13.9 °C 1006.3 hPa SW 19.5 km/h 40.2 km/h 86% 0.0 mm 14.00 W/m2
16:30 16.1 °C 13.9 °C 1006.3 hPa SSW 11.1 km/h 25.7 km/h 87% 0.0 mm 14.00 W/m2
16:35 16.1 °C 13.9 °C 1006.3 hPa SW 20.9 km/h 20.9 km/h 87% 0.0 mm 16.00 W/m2
16:40 16.0 °C 13.8 °C 1006.3 hPa SSW 17.7 km/h 29.0 km/h 87% 0.0 mm 14.00 W/m2
16:45 16.0 °C 13.8 °C 1006.3 hPa SW 11.1 km/h 25.7 km/h 87% 0.0 mm 12.00 W/m2
16:50 16.1 °C 13.9 °C 1006.0 hPa SSW 13.0 km/h 41.8 km/h 87% 0.0 mm 18.00 W/m2
16:55 16.1 °C 13.8 °C 1006.0 hPa WSW 20.9 km/h 37.0 km/h 86% 0.0 mm 19.00 W/m2
17:00 16.2 °C 13.9 °C 1006.0 hPa SSW 24.1 km/h 38.6 km/h 86% 0.0 mm 14.00 W/m2
17:05 16.2 °C 13.7 °C 1006.0 hPa SSW 16.3 km/h 35.4 km/h 85% 0.0 mm 11.00 W/m2
17:10 16.3 °C 13.8 °C 1006.3 hPa SW 16.3 km/h 30.6 km/h 85% 0.0 mm 11.00 W/m2
17:15 16.3 °C 13.6 °C 1005.6 hPa South 4.7 km/h 29.0 km/h 84% 0.0 mm 9.00 W/m2
17:20 16.3 °C 13.6 °C 1005.6 hPa SW 16.3 km/h 30.6 km/h 84% 0.0 mm 9.00 W/m2
17:25 16.2 °C 13.5 °C 1005.6 hPa WSW 24.1 km/h 29.0 km/h 84% 0.0 mm 5.00 W/m2
17:30 16.3 °C 13.6 °C 1006.0 hPa South 11.1 km/h 27.4 km/h 84% 0.0 mm 0.00 W/m2
17:35 16.2 °C 13.5 °C 1005.6 hPa South 27.4 km/h 40.2 km/h 84% 0.0 mm 0.00 W/m2
17:40 16.2 °C 13.5 °C 1005.6 hPa South 19.5 km/h 32.2 km/h 84% 0.0 mm 0.00 W/m2
17:45 16.2 °C 13.5 °C 1005.6 hPa SW 25.9 km/h 46.7 km/h 84% 0.0 mm 0.00 W/m2
17:50 16.1 °C 13.6 °C 1005.6 hPa SW 11.1 km/h 22.5 km/h 85% 0.0 mm 0.00 W/m2
17:55 15.9 °C 13.4 °C 1005.6 hPa South 11.1 km/h 40.2 km/h 85% 0.0 mm 0.00 W/m2
18:00 15.8 °C 13.5 °C 1005.6 hPa SW 24.1 km/h 37.0 km/h 86% 0.0 mm 0.00 W/m2
18:05 15.6 °C 13.4 °C 1005.6 hPa SSE 13.0 km/h 17.7 km/h 87% 0.0 mm 0.00 W/m2
18:10 15.4 °C 13.4 °C 1005.6 hPa SW 24.1 km/h 33.8 km/h 88% 0.3 mm 0.00 W/m2
18:15 15.3 °C 13.3 °C 1005.3 hPa SSW 6.4 km/h 20.9 km/h 88% 0.3 mm 0.00 W/m2
18:20 15.3 °C 13.5 °C 1005.6 hPa West 14.3 km/h 35.4 km/h 89% 0.3 mm 0.00 W/m2
18:25 15.2 °C 13.4 °C 1005.6 hPa SW 7.9 km/h 35.4 km/h 89% 0.3 mm 0.00 W/m2
18:30 15.2 °C 13.4 °C 1005.6 hPa SSW 17.7 km/h 33.8 km/h 89% 0.3 mm 0.00 W/m2
18:35 15.2 °C 13.4 °C 1005.6 hPa SSW 24.1 km/h 35.4 km/h 89% 0.3 mm 0.00 W/m2
18:40 15.1 °C 13.3 °C 1005.6 hPa WSW 33.8 km/h 40.2 km/h 89% 0.3 mm 0.00 W/m2
18:45 15.1 °C 13.3 °C 1005.3 hPa SW 28.8 km/h 35.4 km/h 89% 0.5 mm 0.00 W/m2
18:50 15.1 °C 13.5 °C 1005.6 hPa South 9.7 km/h 35.4 km/h 90% 0.5 mm 0.00 W/m2
18:55 15.2 °C 13.6 °C 1005.3 hPa SW 48.3 km/h 48.3 km/h 90% 0.5 mm 0.00 W/m2
19:00 15.1 °C 13.5 °C 1005.6 hPa South 20.9 km/h 29.0 km/h 90% 0.5 mm 0.00 W/m2
19:05 15.1 °C 13.5 °C 1005.6 hPa SSE 20.9 km/h 45.1 km/h 90% 0.5 mm 0.00 W/m2
19:10 15.1 °C 13.5 °C 1005.6 hPa SSW 28.8 km/h 29.0 km/h 90% 0.3 mm 0.00 W/m2
19:15 15.2 °C 13.6 °C 1005.6 hPa SW 30.6 km/h 30.6 km/h 90% 0.3 mm 0.00 W/m2
19:20 15.3 °C 13.7 °C 1005.6 hPa SW 35.2 km/h 37.0 km/h 90% 0.3 mm 0.00 W/m2
19:25 15.4 °C 13.8 °C 1005.6 hPa SSW 30.6 km/h 46.7 km/h 90% 0.3 mm 0.00 W/m2
19:30 15.3 °C 13.7 °C 1005.6 hPa SW 11.1 km/h 24.1 km/h 90% 0.3 mm 0.00 W/m2
19:35 15.3 °C 13.7 °C 1005.6 hPa SSW 17.7 km/h 33.8 km/h 90% 0.3 mm 0.00 W/m2
19:40 15.3 °C 13.7 °C 1005.6 hPa SSW 13.0 km/h 33.8 km/h 90% 0.3 mm 0.00 W/m2
19:45 15.3 °C 13.7 °C 1005.6 hPa South 20.9 km/h 37.0 km/h 90% 0.0 mm 0.00 W/m2
19:50 15.3 °C 13.8 °C 1005.6 hPa SSW 37.0 km/h 38.6 km/h 91% 0.0 mm 0.00 W/m2
19:55 15.3 °C 13.8 °C 1005.6 hPa SW 13.0 km/h 40.2 km/h 91% 0.0 mm 0.00 W/m2
20:00 15.3 °C 13.8 °C 1005.6 hPa SW 20.9 km/h 35.4 km/h 91% 0.0 mm 0.00 W/m2
20:05 15.4 °C 13.9 °C 1005.6 hPa South 11.1 km/h 38.6 km/h 91% 0.0 mm 0.00 W/m2
20:10 15.4 °C 13.9 °C 1005.6 hPa WSW 25.9 km/h 30.6 km/h 91% 0.0 mm 0.00 W/m2
20:15 15.5 °C 14.0 °C 1005.6 hPa WSW 16.3 km/h 33.8 km/h 91% 0.0 mm 0.00 W/m2
20:20 15.4 °C 13.9 °C 1005.6 hPa South 13.0 km/h 29.0 km/h 91% 0.0 mm 0.00 W/m2
20:25 15.4 °C 13.9 °C 1005.3 hPa SW 22.7 km/h 33.8 km/h 91% 0.3 mm 0.00 W/m2
20:30 15.5 °C 14.0 °C 1005.3 hPa SW 30.6 km/h 43.4 km/h 91% 0.3 mm 0.00 W/m2
20:35 15.6 °C 14.1 °C 1005.3 hPa SW 25.9 km/h 27.4 km/h 91% 0.3 mm 0.00 W/m2
20:40 15.6 °C 14.1 °C 1005.3 hPa SSW 11.1 km/h 27.4 km/h 91% 0.3 mm 0.00 W/m2
20:45 15.6 °C 14.1 °C 1005.0 hPa WSW 20.9 km/h 46.7 km/h 91% 0.3 mm 0.00 W/m2
20:50 15.7 °C 14.1 °C 1005.3 hPa SW 19.5 km/h 27.4 km/h 90% 0.3 mm 0.00 W/m2
20:55 15.6 °C 14.0 °C 1005.0 hPa SW 13.0 km/h 20.9 km/h 90% 0.3 mm 0.00 W/m2
21:00 15.7 °C 14.1 °C 1005.0 hPa SSW 17.7 km/h 32.2 km/h 90% 0.5 mm 0.00 W/m2
21:05 15.7 °C 14.1 °C 1005.0 hPa SW 35.2 km/h 45.1 km/h 90% 0.5 mm 0.00 W/m2
21:10 15.7 °C 14.1 °C 1005.0 hPa SW 28.8 km/h 32.2 km/h 90% 0.5 mm 0.00 W/m2
21:15 15.8 °C 14.2 °C 1005.0 hPa SW 22.7 km/h 30.6 km/h 90% 0.5 mm 0.00 W/m2
21:20 15.8 °C 14.2 °C 1005.0 hPa SW 16.3 km/h 27.4 km/h 90% 0.5 mm 0.00 W/m2
21:25 15.8 °C 14.2 °C 1005.0 hPa SSW 7.9 km/h 20.9 km/h 90% 0.3 mm 0.00 W/m2
21:30 15.8 °C 14.2 °C 1005.0 hPa SW 6.4 km/h 27.4 km/h 90% 0.3 mm 0.00 W/m2
21:35 15.8 °C 14.2 °C 1005.3 hPa SW 16.3 km/h 51.5 km/h 90% 0.3 mm 0.00 W/m2
21:40 15.8 °C 14.2 °C 1005.0 hPa SW 19.5 km/h 46.7 km/h 90% 0.3 mm 0.00 W/m2
21:45 15.8 °C 14.2 °C 1005.0 hPa SW 16.3 km/h 32.2 km/h 90% 0.3 mm 0.00 W/m2
21:50 15.7 °C 14.1 °C 1005.0 hPa WSW 20.9 km/h 29.0 km/h 90% 0.3 mm 0.00 W/m2
21:55 15.7 °C 14.1 °C 1005.3 hPa SW 19.5 km/h 38.6 km/h 90% 0.3 mm 0.00 W/m2
22:00 15.7 °C 14.1 °C 1005.0 hPa WSW 14.3 km/h 27.4 km/h 90% 0.0 mm 0.00 W/m2
22:05 15.7 °C 14.1 °C 1005.3 hPa WSW 24.1 km/h 41.8 km/h 90% 0.0 mm 0.00 W/m2
22:10 15.7 °C 14.1 °C 1005.0 hPa WSW 19.5 km/h 32.2 km/h 90% 0.3 mm 0.00 W/m2
22:15 15.7 °C 14.1 °C 1005.0 hPa SSW 24.1 km/h 32.2 km/h 90% 0.3 mm 0.00 W/m2
22:20 15.8 °C 14.2 °C 1005.0 hPa SW 27.4 km/h 38.6 km/h 90% 0.3 mm 0.00 W/m2
22:25 15.8 °C 14.2 °C 1005.0 hPa South 22.7 km/h 35.4 km/h 90% 0.3 mm 0.00 W/m2
22:30 15.8 °C 14.2 °C 1005.3 hPa SW 33.8 km/h 35.4 km/h 90% 0.3 mm 0.00 W/m2
22:35 15.8 °C 14.2 °C 1005.3 hPa SSW 11.1 km/h 49.9 km/h 90% 0.3 mm 0.00 W/m2
22:40 15.8 °C 14.2 °C 1005.3 hPa WNW 20.9 km/h 29.0 km/h 90% 0.3 mm 0.00 W/m2
22:45 15.8 °C 14.2 °C 1005.3 hPa WSW 20.9 km/h 29.0 km/h 90% 0.3 mm 0.00 W/m2
22:50 15.7 °C 14.1 °C 1005.3 hPa SSW 16.3 km/h 40.2 km/h 90% 0.5 mm 0.00 W/m2
22:55 15.7 °C 14.1 °C 1005.3 hPa WSW 9.7 km/h 32.2 km/h 90% 0.5 mm 0.00 W/m2
23:00 15.7 °C 14.1 °C 1005.3 hPa SSE 20.9 km/h 20.9 km/h 90% 0.5 mm 0.00 W/m2
23:05 15.8 °C 14.2 °C 1005.3 hPa SW 22.7 km/h 37.0 km/h 90% 0.3 mm 0.00 W/m2
23:10 15.8 °C 14.2 °C 1005.3 hPa SW 24.1 km/h 33.8 km/h 90% 0.3 mm 0.00 W/m2
23:15 15.8 °C 14.2 °C 1005.3 hPa SSW 17.7 km/h 32.2 km/h 90% 0.3 mm 0.00 W/m2
23:20 15.8 °C 14.2 °C 1005.6 hPa SW 9.7 km/h 20.9 km/h 90% 0.3 mm 0.00 W/m2
23:25 15.7 °C 14.1 °C 1005.6 hPa SSW 9.7 km/h 29.0 km/h 90% 0.3 mm 0.00 W/m2
23:30 15.8 °C 14.2 °C 1005.6 hPa SSW 17.7 km/h 38.6 km/h 90% 0.3 mm 0.00 W/m2
23:35 15.7 °C 14.1 °C 1005.6 hPa SSW 7.9 km/h 22.5 km/h 90% 0.3 mm 0.00 W/m2
23:40 15.7 °C 14.1 °C 1005.6 hPa SW 14.3 km/h 29.0 km/h 90% 0.3 mm 0.00 W/m2
23:45 15.8 °C 14.2 °C 1005.6 hPa SW 13.0 km/h 32.2 km/h 90% 0.3 mm 0.00 W/m2
23:50 15.7 °C 14.1 °C 1005.6 hPa SW 20.9 km/h 20.9 km/h 90% 0.3 mm 0.00 W/m2
23:55 15.7 °C 14.2 °C 1005.6 hPa SW 11.1 km/h 30.6 km/h 91% 0.3 mm 0.00 W/m2